Time;durP1;ratioP1;P1;durP2;ratioP2;P2;SDS_P1;SDS_P2;PMS_P1;PMS_P2;Temp;Humidity;BMP_temperature;BMP_pressure;BME280_temperature;BME280_humidity;BME280_pressure;Samples;Min_cycle;Max_cycle;Signal;HPM_P1;HPM_P2
2022/12/09 00:00:16;;;;;;;57.40;33.95;;;;;;;2.42;73.42;100141.31;680240;29;1129;-85
2022/12/09 00:00:36;;;;;;;60.50;34.00;;;;;;;2.38;73.53;100139.38;677478;29;1209;-85
2022/12/09 00:01:04;;;;;;;60.13;34.88;;;;;;;2.44;73.45;100142.28;677666;29;1341;-84
2022/12/09 00:01:25;;;;;;;58.00;35.63;;;;;;;2.45;73.45;100156.94;675150;29;1186;-84
2022/12/09 00:01:47;;;;;;;56.53;35.35;;;;;;;2.40;73.33;100148.06;677576;29;1254;-84
2022/12/09 00:02:07;;;;;;;55.20;34.17;;;;;;;2.40;73.67;100139.47;677725;29;1077;-85
2022/12/09 00:02:30;;;;;;;53.17;33.03;;;;;;;2.41;73.13;100147.28;675120;29;916;-84
2022/12/09 00:02:50;;;;;;;50.22;31.75;;;;;;;2.39;73.54;100140.28;672578;29;924;-85
2022/12/09 00:03:11;;;;;;;51.87;31.97;;;;;;;2.39;73.20;100148.88;677775;29;1132;-84
2022/12/09 00:03:32;;;;;;;51.55;32.45;;;;;;;2.41;73.18;100157.59;680198;29;1087;-85
2022/12/09 00:03:53;;;;;;;54.92;33.08;;;;;;;2.40;73.23;100149.78;677748;29;834;-85
2022/12/09 00:04:15;;;;;;;56.42;33.47;;;;;;;2.37;73.44;100155.66;675054;29;1431;-84
2022/12/09 00:04:36;;;;;;;55.15;33.80;;;;;;;2.33;73.09;100143.44;672348;29;1122;-84
2022/12/09 00:04:56;;;;;;;57.17;34.03;;;;;;;2.37;73.07;100145.34;672652;29;892;-84
2022/12/09 00:05:19;;;;;;;55.05;33.17;;;;;;;2.35;73.40;100146.97;675251;29;769;-84
2022/12/09 00:05:40;;;;;;;56.05;33.17;;;;;;;2.31;73.04;100135.63;674915;29;1254;-84
2022/12/09 00:06:15;;;;;;;53.90;32.37;;;;;;;2.37;72.81;100150.50;674946;29;1283;-84
2022/12/09 00:06:36;;;;;;;51.65;31.27;;;;;;;2.27;73.00;100149.13;679903;29;1036;-84
2022/12/09 00:06:57;;;;;;;50.72;31.20;;;;;;;2.21;73.24;100135.06;675094;29;1155;-85
2022/12/09 00:07:17;;;;;;;53.30;32.08;;;;;;;2.24;72.96;100142.94;675026;29;1197;-84
2022/12/09 00:07:38;;;;;;;56.77;32.50;;;;;;;2.22;72.86;100139.41;674851;29;987;-84
2022/12/09 00:07:58;;;;;;;58.92;33.88;;;;;;;2.16;72.95;100138.28;677696;29;1194;-85
2022/12/09 00:08:19;;;;;;;59.65;34.35;;;;;;;2.13;73.23;100138.13;677753;29;1002;-84
2022/12/09 00:08:39;;;;;;;53.90;33.10;;;;;;;2.13;73.50;100139.84;672329;29;1074;-84
2022/12/09 00:09:00;;;;;;;51.33;31.70;;;;;;;2.10;72.85;100143.13;672500;29;1236;-85
2022/12/09 00:09:21;;;;;;;53.58;31.55;;;;;;;2.09;72.93;100143.94;677861;29;1251;-85
2022/12/09 00:09:41;;;;;;;55.37;32.13;;;;;;;2.04;73.35;100137.66;677587;29;1149;-84
2022/12/09 00:10:03;;;;;;;60.87;33.63;;;;;;;2.10;73.18;100153.44;680328;29;836;-85
2022/12/09 00:10:24;;;;;;;56.97;33.30;;;;;;;2.05;73.18;100142.00;672392;29;1290;-84
2022/12/09 00:10:45;;;;;;;57.10;33.33;;;;;;;2.11;72.99;100141.41;677649;29;1436;-84
2022/12/09 00:11:06;;;;;;;54.92;32.88;;;;;;;2.09;72.83;100135.31;679624;29;1076;-84
2022/12/09 00:11:27;;;;;;;55.85;33.15;;;;;;;2.14;72.94;100139.91;674964;29;1286;-84
2022/12/09 00:11:47;;;;;;;52.27;31.70;;;;;;;2.11;73.14;100142.31;674609;29;1119;-85
2022/12/09 00:12:08;;;;;;;53.22;31.42;;;;;;;2.15;73.12;100139.09;672400;29;1181;-84
2022/12/09 00:12:28;;;;;;;54.73;32.00;;;;;;;2.22;73.00;100144.56;669777;29;1915;-84
2022/12/09 00:12:53;;;;;;;54.63;31.90;;;;;;;2.22;72.84;100144.56;672565;29;831;-84
2022/12/09 00:13:14;;;;;;;51.83;30.73;;;;;;;2.23;72.79;100146.31;677617;29;1397;-84
2022/12/09 00:13:34;;;;;;;52.13;31.10;;;;;;;2.18;72.71;100139.25;680109;29;1308;-84
2022/12/09 00:13:56;;;;;;;51.17;31.60;;;;;;;2.17;72.36;100137.50;672523;29;1183;-84
2022/12/09 00:14:17;;;;;;;50.15;31.70;;;;;;;2.17;72.49;100137.50;675138;29;1207;-84
2022/12/09 00:14:40;;;;;;;46.50;30.25;;;;;;;2.16;72.16;100134.84;672448;29;1117;-84
2022/12/09 00:15:01;;;;;;;45.10;29.35;;;;;;;2.14;71.92;100131.31;672407;29;1304;-85
2022/12/09 00:15:22;;;;;;;44.08;29.17;;;;;;;2.15;72.36;100143.38;672385;29;1321;-84
2022/12/09 00:15:42;;;;;;;44.90;29.97;;;;;;;2.11;71.92;100134.59;672364;29;1320;-84
2022/12/09 00:16:12;;;;;;;50.03;31.52;;;;;;;2.14;72.09;100142.47;677639;29;1152;-84
2022/12/09 00:16:32;;;;;;;52.45;31.67;;;;;;;2.08;71.95;100131.84;679977;29;1104;-84
2022/12/09 00:16:54;;;;;;;51.10;31.40;;;;;;;2.15;71.87;100148.50;677528;29;1166;-85
2022/12/09 00:17:15;;;;;;;48.13;30.60;;;;;;;2.06;72.32;100133.47;672457;29;1320;-85
2022/12/09 00:17:38;;;;;;;46.53;30.85;;;;;;;1.87;72.14;100127.38;674860;29;1160;-85
2022/12/09 00:17:59;;;;;;;47.13;31.02;;;;;;;1.86;72.19;100130.75;674779;29;1267;-85
2022/12/09 00:18:19;;;;;;;49.20;31.35;;;;;;;1.81;72.57;100131.28;677508;29;1215;-84
2022/12/09 00:18:41;;;;;;;50.83;31.63;;;;;;;1.81;72.75;100139.91;677486;29;1278;-84
2022/12/09 00:19:01;;;;;;;50.47;30.80;;;;;;;1.73;72.64;100128.31;675128;29;1217;-85
2022/12/09 00:19:22;;;;;;;50.72;30.90;;;;;;;1.71;72.56;100130.78;675103;29;1227;-84
2022/12/09 00:19:43;;;;;;;52.30;30.75;;;;;;;1.73;72.80;100139.50;674962;29;975;-84
2022/12/09 00:20:04;;;;;;;52.60;31.37;;;;;;;1.70;73.09;100128.16;674968;29;1175;-84
2022/12/09 00:20:24;;;;;;;52.58;30.60;;;;;;;1.69;72.77;100134.97;675142;29;984;-84
2022/12/09 00:20:45;;;;;;;51.17;31.23;;;;;;;1.70;72.77;100143.59;675018;29;1011;-84
2022/12/09 00:21:22;;;;;;;50.30;31.00;;;;;;;1.82;72.94;100151.94;677706;29;1267;-84
2022/12/09 00:21:42;;;;;;;46.35;29.60;;;;;;;1.77;72.96;100137.97;674835;29;1133;-85
2022/12/09 00:22:03;;;;;;;45.53;29.80;;;;;;;1.80;72.84;100130.41;674989;29;1262;-85
2022/12/09 00:22:25;;;;;;;47.30;30.63;;;;;;;1.80;72.40;100130.41;672517;29;1143;-83
2022/12/09 00:22:46;;;;;;;50.42;31.85;;;;;;;1.86;72.59;100141.03;672419;29;1220;-84
2022/12/09 00:23:06;;;;;;;51.57;31.97;;;;;;;1.81;72.34;100132.19;675043;29;1218;-84
2022/12/09 00:23:27;;;;;;;53.38;32.22;;;;;;;1.82;72.43;100133.94;672406;29;1043;-85
2022/12/09 00:23:49;;;;;;;52.03;31.47;;;;;;;1.81;72.13;100137.31;672445;29;1208;-84
2022/12/09 00:24:11;;;;;;;50.33;31.55;;;;;;;1.84;72.28;100141.75;672243;29;1214;-84
2022/12/09 00:24:32;;;;;;;49.35;31.73;;;;;;;1.82;72.45;100141.66;674564;29;1034;-84
2022/12/09 00:24:53;;;;;;;50.67;32.30;;;;;;;1.82;72.60;100139.09;674708;29;1020;-83
2022/12/09 00:25:14;;;;;;;50.27;32.10;;;;;;;1.83;72.31;100145.13;677580;29;1160;-84
2022/12/09 00:25:34;;;;;;;53.13;32.08;;;;;;;1.84;72.53;100140.03;682824;28;1115;-84
2022/12/09 00:25:56;;;;;;;54.92;32.00;;;;;;;1.85;72.29;100140.94;680303;29;1179;-84
2022/12/09 00:26:18;;;;;;;55.00;31.95;;;;;;;1.82;72.47;100133.06;677572;29;1356;-84
2022/12/09 00:26:39;;;;;;;54.13;32.88;;;;;;;1.90;72.43;100142.09;677220;29;1296;-84
2022/12/09 00:27:00;;;;;;;56.35;33.78;;;;;;;1.86;72.12;100146.19;674928;29;1140;-82
2022/12/09 00:27:20;;;;;;;59.30;34.30;;;;;;;1.88;72.56;100138.53;674985;29;1182;-81
2022/12/09 00:27:41;;;;;;;61.27;33.93;;;;;;;1.84;72.40;100152.03;674440;29;1200;-81
2022/12/09 00:28:02;;;;;;;60.25;33.83;;;;;;;1.75;72.71;100143.03;677594;29;1178;-81
2022/12/09 00:28:22;;;;;;;63.90;35.65;;;;;;;1.82;72.54;100141.66;675022;29;1262;-82
2022/12/09 00:28:43;;;;;;;65.30;36.13;;;;;;;1.87;72.38;100145.38;677518;29;1176;-82
2022/12/09 00:29:04;;;;;;;62.50;35.97;;;;;;;1.75;72.10;100132.75;677525;29;1225;-82
2022/12/09 00:29:25;;;;;;;60.33;35.30;;;;;;;1.74;72.42;100137.78;677540;29;998;-82
2022/12/09 00:29:45;;;;;;;58.70;34.95;;;;;;;1.83;72.31;100140.84;677429;29;1277;-82
2022/12/09 00:30:06;;;;;;;62.97;35.95;;;;;;;1.83;72.31;100140.84;672851;29;995;-82
2022/12/09 00:30:27;;;;;;;65.82;35.78;;;;;;;1.86;72.31;100150.44;677439;29;1416;-82
2022/12/09 00:30:48;;;;;;;66.18;35.55;;;;;;;1.81;72.35;100134.75;675091;29;1106;-82
2022/12/09 00:31:12;;;;;;;61.63;34.20;;;;;;;1.80;71.96;100140.69;677529;29;1330;-82
2022/12/09 00:31:35;;;;;;;56.97;33.72;;;;;;;1.79;72.13;100143.19;675026;29;1094;-82
2022/12/09 00:31:56;;;;;;;56.95;33.10;;;;;;;1.84;72.11;100152.91;675076;29;973;-82
2022/12/09 00:32:16;;;;;;;59.90;33.40;;;;;;;1.79;72.26;100141.50;674588;29;1240;-82
2022/12/09 00:32:37;;;;;;;66.23;34.80;;;;;;;1.78;72.14;100142.31;674717;29;1988;-82
2022/12/09 00:32:58;;;;;;;70.20;35.70;;;;;;;1.76;72.16;100142.22;675102;29;878;-82
2022/12/09 00:33:19;;;;;;;70.25;35.28;;;;;;;1.78;71.89;100142.31;672456;29;1014;-82
2022/12/09 00:33:40;;;;;;;63.40;34.75;;;;;;;1.79;72.13;100148.31;674957;29;1127;-82
2022/12/09 00:34:03;;;;;;;58.30;33.90;;;;;;;1.76;72.21;100138.75;677687;29;847;-82
2022/12/09 00:34:24;;;;;;;53.67;32.95;;;;;;;1.79;72.19;100151.81;677506;29;1237;-82
2022/12/09 00:34:45;;;;;;;52.53;32.85;;;;;;;1.80;71.92;100150.09;674933;29;1194;-82
2022/12/09 00:35:05;;;;;;;57.45;33.85;;;;;;;1.76;72.13;100143.91;677558;29;1084;-82
2022/12/09 00:35:26;;;;;;;59.10;33.63;;;;;;;1.79;72.06;100138.94;674926;29;1142;-82
2022/12/09 00:35:47;;;;;;;62.75;34.20;;;;;;;1.80;71.77;100144.94;672379;29;1281;-82
2022/12/09 00:36:10;;;;;;;61.77;34.90;;;;;;;1.85;72.01;100156.38;674893;29;1077;-82
2022/12/09 00:36:31;;;;;;;65.25;36.40;;;;;;;1.85;72.06;100156.38;674817;29;1077;-82
2022/12/09 00:36:52;;;;;;;62.20;35.65;;;;;;;1.83;71.95;100151.16;674812;29;851;-82
2022/12/09 00:37:12;;;;;;;61.53;35.33;;;;;;;1.85;72.17;100158.94;674963;29;1039;-82
2022/12/09 00:37:33;;;;;;;61.75;35.65;;;;;;;1.85;71.87;100151.25;672298;29;1358;-82
2022/12/09 00:37:54;;;;;;;62.65;35.90;;;;;;;1.81;72.25;100139.91;675107;29;817;-82
2022/12/09 00:38:14;;;;;;;60.67;35.55;;;;;;;1.85;72.29;100138.38;674929;29;1244;-82
2022/12/09 00:38:35;;;;;;;61.63;35.70;;;;;;;1.91;72.37;100155.00;682752;29;1279;-82
2022/12/09 00:38:57;;;;;;;63.75;36.35;;;;;;;1.93;72.27;100152.53;677635;29;976;-82
2022/12/09 00:39:17;;;;;;;63.67;36.75;;;;;;;1.95;72.38;100150.91;675041;29;1481;-82
2022/12/09 00:39:38;;;;;;;62.90;36.50;;;;;;;1.92;72.57;100145.63;672277;29;1017;-84
2022/12/09 00:39:58;;;;;;;63.30;36.07;;;;;;;1.93;72.55;100138.75;672454;29;1142;-84
2022/12/09 00:40:20;;;;;;;65.68;37.17;;;;;;;1.93;72.16;100151.63;672440;29;1118;-84
2022/12/09 00:40:40;;;;;;;64.63;36.72;;;;;;;1.95;72.78;100144.91;674859;29;1228;-85
2022/12/09 00:41:02;;;;;;;61.42;36.80;;;;;;;1.96;72.22;100151.81;680209;29;1072;-84
2022/12/09 00:41:23;;;;;;;62.65;37.10;;;;;;;1.99;72.50;100145.13;677655;29;1272;-84
2022/12/09 00:41:44;;;;;;;64.22;37.78;;;;;;;2.04;72.15;100145.38;677591;29;1011;-84
2022/12/09 00:42:05;;;;;;;63.20;37.00;;;;;;;2.02;72.29;100140.13;677602;29;1233;-84
2022/12/09 00:42:26;;;;;;;60.63;36.20;;;;;;;2.06;72.15;100150.63;677555;29;1026;-84
2022/12/09 00:42:47;;;;;;;59.75;34.95;;;;;;;2.07;72.32;100150.66;674947;29;1263;-84
2022/12/09 00:43:07;;;;;;;64.63;36.30;;;;;;;2.07;72.11;100144.66;674925;29;1146;-85
2022/12/09 00:43:28;;;;;;;66.40;36.77;;;;;;;2.07;72.50;100142.94;675078;29;1158;-84
2022/12/09 00:43:48;;;;;;;66.00;37.40;;;;;;;2.07;72.21;100136.94;672396;29;1044;-84
2022/12/09 00:44:10;;;;;;;64.28;36.65;;;;;;;2.08;72.44;100137.00;674861;29;1159;-85
2022/12/09 00:44:32;;;;;;;66.35;36.95;;;;;;;2.10;71.99;100140.56;677526;29;1433;-84
2022/12/09 00:44:52;;;;;;;64.95;36.70;;;;;;;2.13;72.05;100139.84;674956;29;1334;-84
2022/12/09 00:45:13;;;;;;;62.92;35.00;;;;;;;2.11;72.32;100142.31;677463;29;1129;-84
2022/12/09 00:45:34;;;;;;;59.50;34.30;;;;;;;2.13;72.07;100143.28;674839;29;1558;-84
2022/12/09 00:45:54;;;;;;;58.33;34.15;;;;;;;2.10;72.15;100142.22;672413;29;1218;-84
2022/12/09 00:46:15;;;;;;;61.77;35.97;;;;;;;2.14;72.47;100147.63;677599;29;1139;-84
2022/12/09 00:46:36;;;;;;;64.03;35.80;;;;;;;2.16;72.22;100140.84;674559;29;1216;-84
2022/12/09 00:46:57;;;;;;;67.20;36.13;;;;;;;2.15;72.21;100143.38;672332;29;1222;-84
2022/12/09 00:47:19;;;;;;;66.18;36.10;;;;;;;2.14;72.11;100132.16;672419;29;1231;-82
2022/12/09 00:47:39;;;;;;;64.45;36.22;;;;;;;2.21;72.28;100150.50;672351;29;1106;-84
2022/12/09 00:48:01;;;;;;;60.45;35.75;;;;;;;2.17;72.32;100141.75;672379;29;1247;-84
2022/12/09 00:48:21;;;;;;;56.15;34.17;;;;;;;2.21;72.25;100148.84;671654;29;1168;-84
2022/12/09 00:48:44;;;;;;;56.05;34.38;;;;;;;2.20;71.84;100146.19;672299;29;1205;-83
2022/12/09 00:49:05;;;;;;;58.67;34.72;;;;;;;2.20;71.92;100147.03;672384;29;1188;-84
2022/12/09 00:49:25;;;;;;;62.40;36.15;;;;;;;2.26;72.30;100151.66;672449;29;1101;-84
2022/12/09 00:49:46;;;;;;;63.87;36.67;;;;;;;2.21;72.11;100145.38;672306;29;1338;-84
2022/12/09 00:50:07;;;;;;;65.15;37.50;;;;;;;2.21;72.35;100148.84;672423;29;1159;-84
2022/12/09 00:50:28;;;;;;;66.32;37.08;;;;;;;2.18;71.85;100139.25;672387;29;1033;-83
2022/12/09 00:50:48;;;;;;;65.65;36.33;;;;;;;2.21;72.01;100147.94;674739;29;1123;-84
2022/12/09 00:51:21;;;;;;;64.15;35.30;;;;;;;2.21;72.20;100148.84;675000;29;1079;-84
2022/12/09 00:51:41;;;;;;;59.80;35.50;;;;;;;2.26;71.85;100151.66;674803;29;1258;-84
2022/12/09 00:52:02;;;;;;;58.70;35.85;;;;;;;2.22;72.45;100149.72;675053;29;1065;-84
2022/12/09 00:52:22;;;;;;;57.13;35.67;;;;;;;2.22;72.39;100149.72;672394;29;1454;-84
2022/12/09 00:52:43;;;;;;;57.07;35.33;;;;;;;2.25;72.00;100144.75;672223;29;1982;-84
2022/12/09 00:53:03;;;;;;;57.33;34.67;;;;;;;2.20;72.14;100141.91;672353;29;1103;-84
2022/12/09 00:53:24;;;;;;;61.80;35.70;;;;;;;2.25;72.36;100147.31;669871;29;1133;-84
2022/12/09 00:53:46;;;;;;;64.40;36.27;;;;;;;2.29;72.25;100152.69;669869;29;1195;-84
2022/12/09 00:54:07;;;;;;;65.47;37.22;;;;;;;2.25;72.07;100140.44;672336;29;1233;-84
2022/12/09 00:54:28;;;;;;;66.47;37.15;;;;;;;2.31;72.02;100139.88;674869;29;1209;-84
2022/12/09 00:54:49;;;;;;;64.30;36.72;;;;;;;2.35;72.19;100152.13;674937;29;844;-84
2022/12/09 00:55:09;;;;;;;62.70;35.83;;;;;;;2.31;71.97;100138.19;675555;29;1058;-84
2022/12/09 00:55:30;;;;;;;61.92;35.33;;;;;;;2.38;72.24;100152.25;674924;29;1011;-83
2022/12/09 00:55:51;;;;;;;65.45;37.17;;;;;;;2.31;71.83;100130.47;675141;29;784;-84
2022/12/09 00:56:11;;;;;;;67.65;37.75;;;;;;;2.31;72.12;100132.16;672651;29;1078;-84
2022/12/09 00:56:32;;;;;;;64.53;38.55;;;;;;;2.32;71.66;100136.50;677616;29;1134;-84
2022/12/09 00:56:55;;;;;;;61.10;36.97;;;;;;;2.32;71.92;100126.19;672174;29;1246;-84
2022/12/09 00:57:16;;;;;;;59.63;36.80;;;;;;;2.41;71.79;100142.13;674962;29;1137;-84
2022/12/09 00:57:38;;;;;;;60.07;34.93;;;;;;;2.39;71.89;100136.00;674830;29;1004;-84
2022/12/09 00:57:59;;;;;;;63.85;35.25;;;;;;;2.40;71.88;100137.75;675120;29;1131;-84
2022/12/09 00:58:19;;;;;;;63.63;35.17;;;;;;;2.37;71.93;100135.03;674996;29;1110;-84
2022/12/09 00:58:40;;;;;;;61.75;35.90;;;;;;;2.30;72.18;100128.72;672134;29;1183;-84
2022/12/09 00:59:01;;;;;;;58.10;35.58;;;;;;;2.34;72.10;100134.91;674971;29;1342;-84
2022/12/09 00:59:22;;;;;;;58.47;35.50;;;;;;;2.18;71.81;100131.53;675089;29;1098;-84
2022/12/09 00:59:42;;;;;;;59.10;35.10;;;;;;;2.13;72.32;100130.41;672331;29;1127;-84
2022/12/09 01:00:03;;;;;;;60.22;35.38;;;;;;;2.14;72.33;100147.63;672522;29;1234;-84
2022/12/09 01:00:24;;;;;;;61.38;35.83;;;;;;;2.10;72.42;100137.97;672406;29;1480;-84
2022/12/09 01:00:45;;;;;;;64.05;36.50;;;;;;;2.11;72.76;100147.47;674912;29;1183;-84
2022/12/09 01:01:05;;;;;;;66.68;37.38;;;;;;;2.20;72.33;100153.91;672433;29;1036;-84
2022/12/09 01:01:27;;;;;;;64.75;36.90;;;;;;;2.15;72.22;100144.22;677499;29;1135;-84
2022/12/09 01:01:47;;;;;;;59.10;35.30;;;;;;;2.24;72.14;100148.09;674922;29;1049;-84
2022/12/09 01:02:08;;;;;;;56.90;34.15;;;;;;;2.30;72.48;100149.31;677522;29;1045;-84
2022/12/09 01:02:28;;;;;;;61.43;35.27;;;;;;;2.26;72.34;100142.22;677597;29;1165;-84
2022/12/09 01:02:50;;;;;;;62.75;36.20;;;;;;;2.31;72.29;100137.31;674830;29;1912;-84
2022/12/09 01:03:15;;;;;;;62.80;36.28;;;;;;;2.33;71.86;100133.13;674948;29;1243;-84
2022/12/09 01:03:36;;;;;;;58.30;35.42;;;;;;;2.35;72.09;100136.66;674663;29;1086;-84
2022/12/09 01:03:57;;;;;;;55.33;34.53;;;;;;;2.40;71.74;100132.63;675026;29;734;-84
2022/12/09 01:04:17;;;;;;;55.40;34.78;;;;;;;2.41;72.18;100142.13;672451;29;1130;-83
2022/12/09 01:04:38;;;;;;;56.10;34.70;;;;;;;2.39;72.20;100143.72;669720;29;1061;-84
2022/12/09 01:04:58;;;;;;;56.72;34.60;;;;;;;2.38;72.02;100134.25;672395;29;1205;-84
2022/12/09 01:05:19;;;;;;;58.58;34.20;;;;;;;2.48;72.22;100137.28;672347;29;1320;-84
2022/12/09 01:05:40;;;;;;;57.60;34.50;;;;;;;2.46;71.94;100138.09;677427;29;1155;-84
2022/12/09 01:06:06;;;;;;;58.83;34.65;;;;;;;2.51;72.06;100142.59;674952;29;1309;-84
2022/12/09 01:06:27;;;;;;;64.38;35.67;;;;;;;2.49;72.30;100141.66;674885;29;1277;-84
2022/12/09 01:06:47;;;;;;;65.97;36.63;;;;;;;2.46;71.74;100140.66;674647;29;1260;-84
2022/12/09 01:07:09;;;;;;;66.97;39.00;;;;;;;2.40;72.12;100131.75;672219;29;1312;-84
2022/12/09 01:07:30;;;;;;;58.88;37.15;;;;;;;2.50;72.26;100146.00;674581;29;1400;-84
2022/12/09 01:07:50;;;;;;;57.50;35.53;;;;;;;2.47;71.81;100133.84;674912;29;1215;-84
2022/12/09 01:08:12;;;;;;;54.73;33.23;;;;;;;2.54;71.97;100142.75;677523;29;1254;-83
2022/12/09 01:08:33;;;;;;;61.15;34.78;;;;;;;2.52;71.92;100132.38;680087;29;1052;-84
2022/12/09 01:08:54;;;;;;;61.10;35.20;;;;;;;2.56;71.78;100143.69;677614;29;914;-84
2022/12/09 01:09:14;;;;;;;61.25;35.55;;;;;;;2.53;72.06;100136.72;677568;29;959;-83
2022/12/09 01:09:35;;;;;;;58.38;34.97;;;;;;;2.56;72.08;100136.88;677350;29;1126;-84
2022/12/09 01:09:55;;;;;;;60.87;35.87;;;;;;;2.58;71.83;100139.53;677629;29;1048;-83
2022/12/09 01:10:17;;;;;;;63.50;36.30;;;;;;;2.55;71.64;100139.34;677563;29;1063;-84
2022/12/09 01:10:40;;;;;;;70.20;36.85;;;;;;;2.59;72.06;100136.13;674771;29;1124;-84
2022/12/09 01:11:08;;;;;;;71.32;37.75;;;;;;;2.57;71.88;100132.63;675022;29;911;-84
2022/12/09 01:11:29;;;;;;;62.20;36.08;;;;;;;2.60;71.69;100137.91;674884;29;1102;-84
2022/12/09 01:11:50;;;;;;;57.90;34.75;;;;;;;2.54;71.57;100133.34;677563;29;1130;-84
2022/12/09 01:12:10;;;;;;;52.97;33.00;;;;;;;2.63;71.67;100148.34;680110;29;993;-84
2022/12/09 01:12:33;;;;;;;54.20;33.30;;;;;;;2.51;71.48;100125.44;679812;29;1970;-84
2022/12/09 01:12:53;;;;;;;52.65;33.10;;;;;;;2.60;71.34;100135.31;674739;29;1072;-84
2022/12/09 01:13:15;;;;;;;54.83;33.42;;;;;;;2.63;71.51;100143.19;674249;29;1206;-84
2022/12/09 01:13:35;;;;;;;55.30;32.42;;;;;;;2.57;71.59;100133.47;677124;29;1286;-84
2022/12/09 01:14:01;;;;;;;60.28;34.25;;;;;;;2.55;70.98;100123.91;677531;29;801;-83
2022/12/09 01:14:22;;;;;;;59.40;34.70;;;;;;;2.58;70.89;100135.25;677433;29;804;-84
2022/12/09 01:14:42;;;;;;;58.95;34.17;;;;;;;2.52;71.14;100140.09;677206;29;1001;-84
2022/12/09 01:15:05;;;;;;;58.63;33.58;;;;;;;2.54;71.23;100145.31;677301;29;1016;-84
2022/12/09 01:15:26;;;;;;;58.60;33.50;;;;;;;2.42;71.68;100131.03;677450;29;990;-83
2022/12/09 01:15:46;;;;;;;60.80;34.63;;;;;;;2.43;71.24;100134.47;677199;29;1071;-83
2022/12/09 01:16:19;;;;;;;57.03;34.08;;;;;;;2.39;71.47;100132.56;679812;29;1208;-83
2022/12/09 01:16:41;;;;;;;53.88;33.72;;;;;;;2.35;71.02;100131.53;677049;29;1139;-84
2022/12/09 01:17:02;;;;;;;53.23;33.27;;;;;;;2.39;71.49;100137.72;677276;29;1030;-84
2022/12/09 01:17:23;;;;;;;55.97;33.08;;;;;;;2.37;71.50;100135.03;674781;29;1176;-84
2022/12/09 01:17:43;;;;;;;58.27;33.47;;;;;;;2.36;71.46;100135.84;674626;29;1104;-84
2022/12/09 01:18:05;;;;;;;59.87;33.73;;;;;;;2.36;71.56;100132.38;677278;29;1215;-84
2022/12/09 01:18:26;;;;;;;58.40;33.45;;;;;;;2.33;71.14;100133.13;677263;29;1119;-84
2022/12/09 01:18:48;;;;;;;56.95;33.33;;;;;;;2.37;71.60;100135.03;679951;29;1162;-83
2022/12/09 01:19:12;;;;;;;55.13;33.28;;;;;;;2.27;71.60;100127.66;674769;29;1089;-83
2022/12/09 01:19:33;;;;;;;56.17;33.88;;;;;;;2.37;71.53;100141.91;674591;29;1081;-84
2022/12/09 01:19:53;;;;;;;56.20;32.83;;;;;;;2.31;71.72;100134.72;672276;29;776;-84
2022/12/09 01:20:15;;;;;;;59.95;33.60;;;;;;;2.30;71.27;100131.28;672127;29;1110;-84
2022/12/09 01:20:35;;;;;;;60.47;33.67;;;;;;;2.26;71.48;100125.91;674706;29;894;-84
2022/12/09 01:20:59;;;;;;;59.83;33.97;;;;;;;2.34;71.45;100145.19;677551;29;1209;-84
2022/12/09 01:21:20;;;;;;;56.78;33.92;;;;;;;2.28;71.69;100135.44;677517;29;1198;-84
2022/12/09 01:21:40;;;;;;;54.28;33.60;;;;;;;2.28;71.60;100134.59;677427;29;1295;-82
2022/12/09 01:22:01;;;;;;;56.13;34.23;;;;;;;2.34;71.70;100147.78;680234;29;1142;-84
2022/12/09 01:22:28;;;;;;;56.40;34.50;;;;;;;2.24;71.30;100130.97;677802;29;851;-84
2022/12/09 01:22:48;;;;;;;55.83;33.65;;;;;;;2.30;71.39;100143.25;672400;29;1133;-84
2022/12/09 01:23:09;;;;;;;54.30;32.45;;;;;;;2.26;71.54;100136.19;672391;29;1119;-84
2022/12/09 01:23:29;;;;;;;54.40;31.90;;;;;;;2.24;71.40;100142.94;675013;29;1273;-84
2022/12/09 01:23:50;;;;;;;54.70;32.53;;;;;;;2.23;71.60;100133.44;677634;29;1272;-83
2022/12/09 01:24:11;;;;;;;54.92;32.88;;;;;;;2.17;71.36;100124.63;677734;29;1001;-84
2022/12/09 01:24:31;;;;;;;55.60;33.50;;;;;;;2.21;71.12;100140.22;677545;29;1140;-84
2022/12/09 01:24:52;;;;;;;57.57;32.97;;;;;;;2.21;71.11;100132.50;677568;29;860;-84
2022/12/09 01:25:13;;;;;;;57.30;32.55;;;;;;;2.22;71.54;100144.56;677536;29;1290;-84
2022/12/09 01:25:33;;;;;;;58.08;31.90;;;;;;;2.16;71.17;100135.69;677000;29;1152;-84
2022/12/09 01:25:54;;;;;;;56.47;32.70;;;;;;;2.16;71.32;100137.41;674915;29;1139;-84
2022/12/09 01:26:15;;;;;;;55.90;33.13;;;;;;;2.17;71.39;100141.75;677477;29;1126;-84
2022/12/09 01:26:36;;;;;;;53.78;33.30;;;;;;;2.16;71.61;100139.97;677304;29;1024;-84
2022/12/09 01:26:57;;;;;;;51.83;31.63;;;;;;;2.09;71.34;100132.75;674859;29;1326;-84
2022/12/09 01:27:17;;;;;;;53.23;31.53;;;;;;;2.08;71.11;100124.13;672387;29;1089;-84
2022/12/09 01:27:38;;;;;;;52.83;31.30;;;;;;;2.09;71.30;100125.03;669475;29;1217;-83
2022/12/09 01:27:59;;;;;;;52.40;31.90;;;;;;;2.15;71.50;100143.38;669886;29;1198;-84
2022/12/09 01:28:19;;;;;;;51.72;32.15;;;;;;;2.04;71.43;100119.63;669788;29;1112;-84
2022/12/09 01:28:40;;;;;;;51.17;31.63;;;;;;;2.08;71.50;100131.84;672548;29;1133;-84
2022/12/09 01:29:01;;;;;;;50.38;31.65;;;;;;;2.08;71.49;100137.00;669856;29;1154;-83
2022/12/09 01:29:21;;;;;;;46.30;29.73;;;;;;;2.10;71.46;100140.56;674903;29;1185;-84
2022/12/09 01:29:43;;;;;;;45.75;29.80;;;;;;;2.07;71.28;100132.66;672172;29;1316;-84
2022/12/09 01:30:06;;;;;;;47.47;30.02;;;;;;;2.08;71.27;100142.13;672354;29;1676;-84
2022/12/09 01:30:26;;;;;;;48.78;30.95;;;;;;;2.03;71.62;100134.19;674879;29;1047;-83
2022/12/09 01:30:47;;;;;;;50.35;31.10;;;;;;;1.95;71.38;100137.19;677533;29;1032;-84
2022/12/09 01:31:13;;;;;;;48.13;29.93;;;;;;;1.99;71.79;100144.25;677515;29;1288;-84
2022/12/09 01:31:34;;;;;;;50.47;30.58;;;;;;;1.97;71.41;100138.13;674915;29;1053;-84
2022/12/09 01:32:08;;;;;;;50.50;30.75;;;;;;;1.97;71.41;100127.84;671261;29;959;-83
2022/12/09 01:32:29;;;;;;;55.80;32.35;;;;;;;1.98;71.38;100135.66;672347;29;1964;-84
2022/12/09 01:32:49;;;;;;;58.08;33.08;;;;;;;1.98;71.38;100140.81;675139;29;789;-83
2022/12/09 01:33:10;;;;;;;57.40;33.17;;;;;;;1.98;71.57;100134.75;675014;29;1020;-83
2022/12/09 01:33:41;;;;;;;53.93;32.23;;;;;;;1.94;71.74;100131.13;674770;29;1094;-84
2022/12/09 01:34:02;;;;;;;52.58;31.65;;;;;;;2.01;71.32;100151.25;677537;29;1207;-84
2022/12/09 01:34:23;;;;;;;52.88;31.60;;;;;;;1.98;71.58;100139.91;675032;29;1172;-84
2022/12/09 01:34:46;;;;;;;52.40;30.98;;;;;;;1.94;71.64;100132.84;674830;29;1168;-81
2022/12/09 01:35:07;;;;;;;48.50;30.58;;;;;;;1.93;71.27;100136.19;674877;29;1221;-84
2022/12/09 01:35:28;;;;;;;50.45;31.30;;;;;;;1.97;71.45;100140.72;672394;29;1182;-84
2022/12/09 01:35:48;;;;;;;50.33;32.28;;;;;;;2.01;71.66;100151.25;674964;29;1066;-84
2022/12/09 01:36:14;;;;;;;51.13;32.45;;;;;;;1.99;71.86;100146.81;672703;29;1104;-84
2022/12/09 01:36:35;;;;;;;50.72;32.25;;;;;;;1.97;71.51;100145.84;672662;29;1393;-82
2022/12/09 01:36:57;;;;;;;53.10;32.50;;;;;;;1.92;71.66;100132.75;675453;29;824;-82
2022/12/09 01:37:18;;;;;;;53.67;32.13;;;;;;;1.95;71.45;100139.75;675508;29;1145;-81
2022/12/09 01:37:38;;;;;;;59.73;33.10;;;;;;;2.00;71.23;100151.16;675260;29;1169;-83
2022/12/09 01:37:59;;;;;;;64.32;33.63;;;;;;;1.96;71.37;100144.97;675370;29;1202;-84
2022/12/09 01:38:20;;;;;;;64.07;33.78;;;;;;;1.97;71.35;100145.84;672764;29;1026;-84
2022/12/09 01:38:40;;;;;;;57.30;32.40;;;;;;;1.82;71.68;100139.09;670137;29;1242;-83
2022/12/09 01:39:01;;;;;;;53.55;31.98;;;;;;;1.81;71.80;100139.00;670319;29;1150;-84
2022/12/09 01:39:22;;;;;;;53.83;31.65;;;;;;;1.95;71.79;100152.63;672921;29;1308;-84
2022/12/09 01:39:42;;;;;;;52.17;31.50;;;;;;;1.88;71.69;100136.84;672567;29;1231;-84
2022/12/09 01:40:05;;;;;;;52.50;31.03;;;;;;;1.91;71.86;100141.28;678019;29;1061;-84
2022/12/09 01:40:26;;;;;;;54.55;32.20;;;;;;;1.91;71.35;100142.13;677931;29;1363;-84
2022/12/09 01:40:47;;;;;;;56.33;32.92;;;;;;;1.94;71.83;100137.97;675419;29;1026;-83
2022/12/09 01:41:07;;;;;;;55.53;33.30;;;;;;;1.90;71.70;100134.38;670242;29;1381;-84